sensor_id;sensor_type;location;lat;lon;timestamp;P1;durP1;ratioP1;P2;durP2;ratioP2
73428;SDS011;61643;49.564;17.412;2023-12-29T00:02:17;31.45;;;14.88;;
73428;SDS011;61643;49.564;17.412;2023-12-29T00:04:43;29.98;;;14.48;;
73428;SDS011;61643;49.564;17.412;2023-12-29T00:07:09;27.38;;;13.18;;
73428;SDS011;61643;49.564;17.412;2023-12-29T00:09:35;30.00;;;13.77;;
73428;SDS011;61643;49.564;17.412;2023-12-29T00:12:06;28.25;;;14.85;;
73428;SDS011;61643;49.564;17.412;2023-12-29T00:14:33;29.20;;;14.05;;
73428;SDS011;61643;49.564;17.412;2023-12-29T00:17:02;34.10;;;14.68;;
73428;SDS011;61643;49.564;17.412;2023-12-29T00:19:29;29.60;;;13.82;;
73428;SDS011;61643;49.564;17.412;2023-12-29T00:21:54;29.98;;;13.93;;
73428;SDS011;61643;49.564;17.412;2023-12-29T00:24:21;30.10;;;14.57;;
73428;SDS011;61643;49.564;17.412;2023-12-29T00:26:47;30.60;;;14.45;;
73428;SDS011;61643;49.564;17.412;2023-12-29T00:29:15;30.73;;;14.77;;
73428;SDS011;61643;49.564;17.412;2023-12-29T00:31:41;32.00;;;14.52;;
73428;SDS011;61643;49.564;17.412;2023-12-29T00:34:07;28.70;;;13.05;;
73428;SDS011;61643;49.564;17.412;2023-12-29T00:36:33;27.48;;;12.25;;
73428;SDS011;61643;49.564;17.412;2023-12-29T00:38:59;28.52;;;13.80;;
73428;SDS011;61643;49.564;17.412;2023-12-29T00:41:25;26.98;;;13.82;;
73428;SDS011;61643;49.564;17.412;2023-12-29T00:43:51;27.10;;;14.40;;
73428;SDS011;61643;49.564;17.412;2023-12-29T00:46:17;30.15;;;14.02;;
73428;SDS011;61643;49.564;17.412;2023-12-29T00:48:43;28.40;;;13.85;;
73428;SDS011;61643;49.564;17.412;2023-12-29T00:51:09;27.45;;;13.73;;
73428;SDS011;61643;49.564;17.412;2023-12-29T00:53:35;26.50;;;12.85;;
73428;SDS011;61643;49.564;17.412;2023-12-29T00:56:01;26.65;;;12.52;;
73428;SDS011;61643;49.564;17.412;2023-12-29T00:58:27;33.58;;;13.38;;
73428;SDS011;61643;49.564;17.412;2023-12-29T01:00:53;27.05;;;13.32;;
73428;SDS011;61643;49.564;17.412;2023-12-29T01:03:19;23.75;;;12.57;;
73428;SDS011;61643;49.564;17.412;2023-12-29T01:05:46;28.08;;;13.18;;
73428;SDS011;61643;49.564;17.412;2023-12-29T01:08:12;26.90;;;13.40;;
73428;SDS011;61643;49.564;17.412;2023-12-29T01:10:38;25.90;;;12.40;;
73428;SDS011;61643;49.564;17.412;2023-12-29T01:13:04;26.45;;;12.50;;
73428;SDS011;61643;49.564;17.412;2023-12-29T01:15:30;28.70;;;13.18;;
73428;SDS011;61643;49.564;17.412;2023-12-29T01:17:56;28.67;;;14.13;;
73428;SDS011;61643;49.564;17.412;2023-12-29T01:20:23;29.60;;;14.05;;
73428;SDS011;61643;49.564;17.412;2023-12-29T01:22:49;25.15;;;12.50;;
73428;SDS011;61643;49.564;17.412;2023-12-29T01:25:15;29.38;;;13.18;;
73428;SDS011;61643;49.564;17.412;2023-12-29T01:27:41;26.80;;;13.02;;
73428;SDS011;61643;49.564;17.412;2023-12-29T01:30:07;25.10;;;12.15;;
73428;SDS011;61643;49.564;17.412;2023-12-29T01:32:33;27.55;;;13.27;;
73428;SDS011;61643;49.564;17.412;2023-12-29T01:34:59;29.70;;;12.88;;
73428;SDS011;61643;49.564;17.412;2023-12-29T01:37:25;28.45;;;13.93;;
73428;SDS011;61643;49.564;17.412;2023-12-29T01:39:51;29.58;;;13.30;;
73428;SDS011;61643;49.564;17.412;2023-12-29T01:42:17;26.95;;;12.60;;
73428;SDS011;61643;49.564;17.412;2023-12-29T01:44:43;29.58;;;13.48;;
73428;SDS011;61643;49.564;17.412;2023-12-29T01:47:16;31.70;;;12.48;;
73428;SDS011;61643;49.564;17.412;2023-12-29T01:49:44;28.45;;;12.95;;
73428;SDS011;61643;49.564;17.412;2023-12-29T01:52:11;27.95;;;12.55;;
73428;SDS011;61643;49.564;17.412;2023-12-29T01:54:37;30.17;;;13.18;;
73428;SDS011;61643;49.564;17.412;2023-12-29T01:57:06;32.40;;;16.10;;
73428;SDS011;61643;49.564;17.412;2023-12-29T01:59:34;32.03;;;14.95;;
73428;SDS011;61643;49.564;17.412;2023-12-29T02:02:01;29.55;;;13.13;;
73428;SDS011;61643;49.564;17.412;2023-12-29T02:04:27;32.75;;;15.15;;
73428;SDS011;61643;49.564;17.412;2023-12-29T02:06:54;29.92;;;14.88;;
73428;SDS011;61643;49.564;17.412;2023-12-29T02:09:20;29.05;;;14.15;;
73428;SDS011;61643;49.564;17.412;2023-12-29T02:11:47;28.15;;;14.70;;
73428;SDS011;61643;49.564;17.412;2023-12-29T02:14:14;32.25;;;14.32;;
73428;SDS011;61643;49.564;17.412;2023-12-29T02:19:48;25.58;;;12.30;;
73428;SDS011;61643;49.564;17.412;2023-12-29T02:22:15;30.98;;;13.82;;
73428;SDS011;61643;49.564;17.412;2023-12-29T02:24:50;28.73;;;14.25;;
73428;SDS011;61643;49.564;17.412;2023-12-29T02:30:13;33.50;;;13.80;;
73428;SDS011;61643;49.564;17.412;2023-12-29T02:32:45;29.85;;;13.75;;
73428;SDS011;61643;49.564;17.412;2023-12-29T02:35:13;26.75;;;13.85;;
73428;SDS011;61643;49.564;17.412;2023-12-29T02:37:44;27.27;;;13.63;;
73428;SDS011;61643;49.564;17.412;2023-12-29T02:40:11;26.15;;;13.52;;
73428;SDS011;61643;49.564;17.412;2023-12-29T02:42:37;28.15;;;13.75;;
73428;SDS011;61643;49.564;17.412;2023-12-29T02:45:03;31.92;;;14.15;;
73428;SDS011;61643;49.564;17.412;2023-12-29T02:47:29;29.88;;;13.80;;
73428;SDS011;61643;49.564;17.412;2023-12-29T02:49:55;24.63;;;12.55;;
73428;SDS011;61643;49.564;17.412;2023-12-29T02:52:21;27.77;;;13.60;;
73428;SDS011;61643;49.564;17.412;2023-12-29T02:54:47;26.25;;;13.18;;
73428;SDS011;61643;49.564;17.412;2023-12-29T02:57:13;26.42;;;13.15;;
73428;SDS011;61643;49.564;17.412;2023-12-29T02:59:39;26.23;;;11.43;;
73428;SDS011;61643;49.564;17.412;2023-12-29T03:02:05;28.77;;;12.30;;
73428;SDS011;61643;49.564;17.412;2023-12-29T03:04:31;29.05;;;13.20;;
73428;SDS011;61643;49.564;17.412;2023-12-29T03:06:57;26.88;;;12.93;;
73428;SDS011;61643;49.564;17.412;2023-12-29T03:09:23;26.35;;;13.05;;
73428;SDS011;61643;49.564;17.412;2023-12-29T03:11:49;27.30;;;14.10;;
73428;SDS011;61643;49.564;17.412;2023-12-29T03:14:15;27.02;;;13.20;;
73428;SDS011;61643;49.564;17.412;2023-12-29T03:16:41;28.52;;;13.07;;
73428;SDS011;61643;49.564;17.412;2023-12-29T03:19:07;27.45;;;12.43;;
73428;SDS011;61643;49.564;17.412;2023-12-29T03:21:33;25.45;;;12.55;;
73428;SDS011;61643;49.564;17.412;2023-12-29T03:23:59;27.70;;;12.93;;
73428;SDS011;61643;49.564;17.412;2023-12-29T03:26:25;26.60;;;12.73;;
73428;SDS011;61643;49.564;17.412;2023-12-29T03:28:51;23.05;;;11.90;;
73428;SDS011;61643;49.564;17.412;2023-12-29T03:31:17;26.58;;;12.75;;
73428;SDS011;61643;49.564;17.412;2023-12-29T03:33:43;25.40;;;12.75;;
73428;SDS011;61643;49.564;17.412;2023-12-29T03:36:09;26.35;;;13.05;;
73428;SDS011;61643;49.564;17.412;2023-12-29T03:38:35;29.48;;;12.75;;
73428;SDS011;61643;49.564;17.412;2023-12-29T03:41:02;24.20;;;12.38;;
73428;SDS011;61643;49.564;17.412;2023-12-29T03:43:31;25.08;;;11.95;;
73428;SDS011;61643;49.564;17.412;2023-12-29T03:45:57;24.83;;;12.43;;
73428;SDS011;61643;49.564;17.412;2023-12-29T03:48:24;22.50;;;11.52;;
73428;SDS011;61643;49.564;17.412;2023-12-29T03:50:50;25.70;;;12.50;;
73428;SDS011;61643;49.564;17.412;2023-12-29T03:53:15;22.52;;;11.52;;
73428;SDS011;61643;49.564;17.412;2023-12-29T03:55:41;23.83;;;11.82;;
73428;SDS011;61643;49.564;17.412;2023-12-29T03:58:09;25.00;;;12.10;;
73428;SDS011;61643;49.564;17.412;2023-12-29T04:00:35;22.55;;;10.82;;
73428;SDS011;61643;49.564;17.412;2023-12-29T04:03:01;26.42;;;12.50;;
73428;SDS011;61643;49.564;17.412;2023-12-29T04:05:27;26.70;;;12.15;;
73428;SDS011;61643;49.564;17.412;2023-12-29T04:07:53;25.23;;;12.18;;
73428;SDS011;61643;49.564;17.412;2023-12-29T04:10:19;24.98;;;12.07;;
73428;SDS011;61643;49.564;17.412;2023-12-29T04:12:45;24.10;;;11.10;;
73428;SDS011;61643;49.564;17.412;2023-12-29T04:15:11;37.88;;;18.58;;
73428;SDS011;61643;49.564;17.412;2023-12-29T04:17:37;30.23;;;14.30;;
73428;SDS011;61643;49.564;17.412;2023-12-29T04:20:04;24.92;;;13.00;;
73428;SDS011;61643;49.564;17.412;2023-12-29T04:22:30;22.00;;;11.40;;
73428;SDS011;61643;49.564;17.412;2023-12-29T04:24:56;24.92;;;11.13;;
73428;SDS011;61643;49.564;17.412;2023-12-29T04:27:22;26.23;;;13.02;;
73428;SDS011;61643;49.564;17.412;2023-12-29T04:29:48;23.50;;;11.90;;
73428;SDS011;61643;49.564;17.412;2023-12-29T04:32:14;27.42;;;12.38;;
73428;SDS011;61643;49.564;17.412;2023-12-29T04:34:40;22.88;;;11.25;;
73428;SDS011;61643;49.564;17.412;2023-12-29T04:37:06;25.77;;;12.25;;
73428;SDS011;61643;49.564;17.412;2023-12-29T04:39:32;26.55;;;11.88;;
73428;SDS011;61643;49.564;17.412;2023-12-29T04:41:59;24.67;;;12.63;;
73428;SDS011;61643;49.564;17.412;2023-12-29T04:44:25;25.65;;;11.77;;
73428;SDS011;61643;49.564;17.412;2023-12-29T04:46:51;25.58;;;12.23;;
73428;SDS011;61643;49.564;17.412;2023-12-29T04:49:17;24.88;;;11.95;;
73428;SDS011;61643;49.564;17.412;2023-12-29T04:51:43;26.23;;;11.93;;
73428;SDS011;61643;49.564;17.412;2023-12-29T04:54:09;23.92;;;11.88;;
73428;SDS011;61643;49.564;17.412;2023-12-29T04:56:35;22.00;;;11.93;;
73428;SDS011;61643;49.564;17.412;2023-12-29T04:59:01;25.58;;;12.30;;
73428;SDS011;61643;49.564;17.412;2023-12-29T05:01:27;25.20;;;12.07;;
73428;SDS011;61643;49.564;17.412;2023-12-29T05:03:53;26.75;;;12.10;;
73428;SDS011;61643;49.564;17.412;2023-12-29T05:06:19;23.65;;;10.93;;
73428;SDS011;61643;49.564;17.412;2023-12-29T05:08:45;20.05;;;10.73;;
73428;SDS011;61643;49.564;17.412;2023-12-29T05:11:11;20.13;;;9.88;;
73428;SDS011;61643;49.564;17.412;2023-12-29T05:13:37;21.65;;;10.52;;
73428;SDS011;61643;49.564;17.412;2023-12-29T05:16:03;18.55;;;9.60;;
73428;SDS011;61643;49.564;17.412;2023-12-29T05:18:29;17.85;;;9.27;;
73428;SDS011;61643;49.564;17.412;2023-12-29T05:20:55;19.90;;;9.88;;
73428;SDS011;61643;49.564;17.412;2023-12-29T05:23:21;19.95;;;10.25;;
73428;SDS011;61643;49.564;17.412;2023-12-29T05:25:47;18.13;;;8.82;;
73428;SDS011;61643;49.564;17.412;2023-12-29T05:28:13;19.45;;;9.68;;
73428;SDS011;61643;49.564;17.412;2023-12-29T05:30:39;18.40;;;9.30;;
73428;SDS011;61643;49.564;17.412;2023-12-29T05:33:05;18.88;;;9.57;;
73428;SDS011;61643;49.564;17.412;2023-12-29T05:35:31;20.13;;;9.55;;
73428;SDS011;61643;49.564;17.412;2023-12-29T05:37:57;18.92;;;9.77;;
73428;SDS011;61643;49.564;17.412;2023-12-29T05:40:23;17.17;;;9.30;;
73428;SDS011;61643;49.564;17.412;2023-12-29T05:42:49;22.13;;;10.23;;
73428;SDS011;61643;49.564;17.412;2023-12-29T05:45:18;19.25;;;9.68;;
73428;SDS011;61643;49.564;17.412;2023-12-29T05:47:44;21.67;;;9.93;;
73428;SDS011;61643;49.564;17.412;2023-12-29T05:50:10;23.00;;;10.10;;
73428;SDS011;61643;49.564;17.412;2023-12-29T05:52:36;17.20;;;9.63;;
73428;SDS011;61643;49.564;17.412;2023-12-29T05:55:02;19.55;;;9.25;;
73428;SDS011;61643;49.564;17.412;2023-12-29T05:57:28;21.77;;;10.35;;
73428;SDS011;61643;49.564;17.412;2023-12-29T05:59:54;19.67;;;10.00;;
73428;SDS011;61643;49.564;17.412;2023-12-29T06:02:20;21.00;;;9.57;;
73428;SDS011;61643;49.564;17.412;2023-12-29T06:04:46;19.65;;;9.70;;
73428;SDS011;61643;49.564;17.412;2023-12-29T06:07:12;18.73;;;9.48;;
73428;SDS011;61643;49.564;17.412;2023-12-29T06:09:38;20.95;;;9.25;;
73428;SDS011;61643;49.564;17.412;2023-12-29T06:12:04;21.65;;;10.60;;
73428;SDS011;61643;49.564;17.412;2023-12-29T06:14:30;20.48;;;9.68;;
73428;SDS011;61643;49.564;17.412;2023-12-29T06:16:56;18.40;;;9.48;;
73428;SDS011;61643;49.564;17.412;2023-12-29T06:19:22;18.23;;;9.13;;
73428;SDS011;61643;49.564;17.412;2023-12-29T06:21:48;20.50;;;9.85;;
73428;SDS011;61643;49.564;17.412;2023-12-29T06:24:14;18.45;;;9.23;;
73428;SDS011;61643;49.564;17.412;2023-12-29T06:26:40;20.27;;;9.98;;
73428;SDS011;61643;49.564;17.412;2023-12-29T06:29:11;17.08;;;9.10;;
73428;SDS011;61643;49.564;17.412;2023-12-29T06:31:41;18.23;;;8.68;;
73428;SDS011;61643;49.564;17.412;2023-12-29T06:34:07;20.63;;;9.40;;
73428;SDS011;61643;49.564;17.412;2023-12-29T06:36:33;18.88;;;9.05;;
73428;SDS011;61643;49.564;17.412;2023-12-29T06:38:59;18.55;;;9.23;;
73428;SDS011;61643;49.564;17.412;2023-12-29T06:41:25;18.67;;;8.77;;
73428;SDS011;61643;49.564;17.412;2023-12-29T06:43:51;19.42;;;9.55;;
73428;SDS011;61643;49.564;17.412;2023-12-29T06:46:17;18.85;;;9.70;;
73428;SDS011;61643;49.564;17.412;2023-12-29T06:48:43;21.27;;;9.63;;
73428;SDS011;61643;49.564;17.412;2023-12-29T06:51:09;17.77;;;8.45;;
73428;SDS011;61643;49.564;17.412;2023-12-29T06:53:40;19.92;;;9.65;;
73428;SDS011;61643;49.564;17.412;2023-12-29T06:56:06;17.90;;;9.00;;
73428;SDS011;61643;49.564;17.412;2023-12-29T06:58:32;18.67;;;8.90;;
73428;SDS011;61643;49.564;17.412;2023-12-29T07:00:58;19.05;;;9.43;;
73428;SDS011;61643;49.564;17.412;2023-12-29T07:03:25;17.83;;;9.20;;
73428;SDS011;61643;49.564;17.412;2023-12-29T07:05:51;19.95;;;10.57;;
73428;SDS011;61643;49.564;17.412;2023-12-29T07:08:17;20.30;;;9.35;;
73428;SDS011;61643;49.564;17.412;2023-12-29T07:10:43;16.35;;;8.85;;
73428;SDS011;61643;49.564;17.412;2023-12-29T07:13:09;18.58;;;8.95;;
73428;SDS011;61643;49.564;17.412;2023-12-29T07:15:35;16.63;;;8.43;;
73428;SDS011;61643;49.564;17.412;2023-12-29T07:18:01;17.38;;;8.43;;
73428;SDS011;61643;49.564;17.412;2023-12-29T07:20:27;17.92;;;8.82;;
73428;SDS011;61643;49.564;17.412;2023-12-29T07:22:54;20.52;;;9.32;;
73428;SDS011;61643;49.564;17.412;2023-12-29T07:25:21;16.30;;;8.88;;
73428;SDS011;61643;49.564;17.412;2023-12-29T07:27:47;16.98;;;8.75;;
73428;SDS011;61643;49.564;17.412;2023-12-29T07:30:14;16.83;;;8.43;;
73428;SDS011;61643;49.564;17.412;2023-12-29T07:32:41;16.73;;;9.10;;
73428;SDS011;61643;49.564;17.412;2023-12-29T07:35:07;18.60;;;8.35;;
73428;SDS011;61643;49.564;17.412;2023-12-29T07:37:33;17.13;;;8.07;;
73428;SDS011;61643;49.564;17.412;2023-12-29T07:39:59;18.88;;;9.38;;
73428;SDS011;61643;49.564;17.412;2023-12-29T07:42:25;19.33;;;9.35;;
73428;SDS011;61643;49.564;17.412;2023-12-29T07:44:51;19.80;;;9.75;;
73428;SDS011;61643;49.564;17.412;2023-12-29T07:47:17;18.58;;;9.02;;
73428;SDS011;61643;49.564;17.412;2023-12-29T07:49:43;21.15;;;10.18;;
73428;SDS011;61643;49.564;17.412;2023-12-29T07:52:09;21.88;;;9.65;;
73428;SDS011;61643;49.564;17.412;2023-12-29T07:54:35;17.10;;;8.00;;
73428;SDS011;61643;49.564;17.412;2023-12-29T07:57:00;19.15;;;9.70;;
73428;SDS011;61643;49.564;17.412;2023-12-29T07:59:26;19.30;;;9.90;;
73428;SDS011;61643;49.564;17.412;2023-12-29T08:01:52;19.40;;;9.98;;
73428;SDS011;61643;49.564;17.412;2023-12-29T08:04:18;21.13;;;8.68;;
73428;SDS011;61643;49.564;17.412;2023-12-29T08:06:44;21.55;;;9.88;;
73428;SDS011;61643;49.564;17.412;2023-12-29T08:09:10;23.23;;;10.50;;
73428;SDS011;61643;49.564;17.412;2023-12-29T08:11:36;24.08;;;10.55;;
73428;SDS011;61643;49.564;17.412;2023-12-29T08:14:02;23.08;;;9.43;;
73428;SDS011;61643;49.564;17.412;2023-12-29T08:16:28;22.70;;;11.18;;
73428;SDS011;61643;49.564;17.412;2023-12-29T08:18:54;27.25;;;13.32;;
73428;SDS011;61643;49.564;17.412;2023-12-29T08:21:20;25.45;;;12.18;;
73428;SDS011;61643;49.564;17.412;2023-12-29T08:23:46;32.35;;;15.75;;
73428;SDS011;61643;49.564;17.412;2023-12-29T08:26:13;24.48;;;12.82;;
73428;SDS011;61643;49.564;17.412;2023-12-29T08:28:40;27.25;;;13.50;;
73428;SDS011;61643;49.564;17.412;2023-12-29T08:31:09;28.63;;;13.30;;
73428;SDS011;61643;49.564;17.412;2023-12-29T08:33:35;27.88;;;13.32;;
73428;SDS011;61643;49.564;17.412;2023-12-29T08:36:04;24.77;;;11.35;;
73428;SDS011;61643;49.564;17.412;2023-12-29T08:38:32;22.27;;;9.60;;
73428;SDS011;61643;49.564;17.412;2023-12-29T08:40:58;17.90;;;8.80;;
73428;SDS011;61643;49.564;17.412;2023-12-29T08:43:25;15.90;;;8.57;;
73428;SDS011;61643;49.564;17.412;2023-12-29T08:45:51;17.15;;;8.65;;
73428;SDS011;61643;49.564;17.412;2023-12-29T08:48:17;19.50;;;9.15;;
73428;SDS011;61643;49.564;17.412;2023-12-29T08:50:43;18.25;;;9.18;;
73428;SDS011;61643;49.564;17.412;2023-12-29T08:53:09;17.52;;;9.10;;
73428;SDS011;61643;49.564;17.412;2023-12-29T08:55:35;20.00;;;10.05;;
73428;SDS011;61643;49.564;17.412;2023-12-29T08:58:01;20.25;;;9.68;;
73428;SDS011;61643;49.564;17.412;2023-12-29T09:00:27;19.90;;;9.63;;
73428;SDS011;61643;49.564;17.412;2023-12-29T09:02:56;17.77;;;9.35;;
73428;SDS011;61643;49.564;17.412;2023-12-29T09:05:22;23.50;;;9.52;;
73428;SDS011;61643;49.564;17.412;2023-12-29T09:07:48;19.85;;;9.35;;
73428;SDS011;61643;49.564;17.412;2023-12-29T09:10:14;18.50;;;9.77;;
73428;SDS011;61643;49.564;17.412;2023-12-29T09:12:40;20.58;;;9.65;;
73428;SDS011;61643;49.564;17.412;2023-12-29T09:15:07;19.90;;;10.07;;
73428;SDS011;61643;49.564;17.412;2023-12-29T09:17:33;18.38;;;9.40;;
73428;SDS011;61643;49.564;17.412;2023-12-29T09:20:00;20.05;;;9.73;;
73428;SDS011;61643;49.564;17.412;2023-12-29T09:22:26;17.05;;;7.93;;
73428;SDS011;61643;49.564;17.412;2023-12-29T09:24:53;15.40;;;8.00;;
73428;SDS011;61643;49.564;17.412;2023-12-29T09:27:20;15.13;;;8.30;;
73428;SDS011;61643;49.564;17.412;2023-12-29T09:29:46;15.02;;;7.63;;
73428;SDS011;61643;49.564;17.412;2023-12-29T09:32:12;15.68;;;7.80;;
73428;SDS011;61643;49.564;17.412;2023-12-29T09:34:38;18.02;;;8.73;;
73428;SDS011;61643;49.564;17.412;2023-12-29T09:37:04;16.70;;;8.48;;
73428;SDS011;61643;49.564;17.412;2023-12-29T09:39:30;16.90;;;8.13;;
73428;SDS011;61643;49.564;17.412;2023-12-29T09:41:57;14.68;;;7.63;;
73428;SDS011;61643;49.564;17.412;2023-12-29T09:44:26;16.08;;;8.23;;
73428;SDS011;61643;49.564;17.412;2023-12-29T09:46:57;11.82;;;6.32;;
73428;SDS011;61643;49.564;17.412;2023-12-29T09:49:36;8.70;;;5.30;;
73428;SDS011;61643;49.564;17.412;2023-12-29T09:52:05;8.88;;;5.00;;
73428;SDS011;61643;49.564;17.412;2023-12-29T09:56:59;9.27;;;4.88;;
73428;SDS011;61643;49.564;17.412;2023-12-29T09:59:26;9.07;;;5.07;;
73428;SDS011;61643;49.564;17.412;2023-12-29T10:01:53;10.95;;;6.10;;
73428;SDS011;61643;49.564;17.412;2023-12-29T10:04:20;9.85;;;5.68;;
73428;SDS011;61643;49.564;17.412;2023-12-29T10:06:45;9.63;;;5.57;;
73428;SDS011;61643;49.564;17.412;2023-12-29T10:09:15;11.32;;;5.82;;
73428;SDS011;61643;49.564;17.412;2023-12-29T10:11:42;13.68;;;7.03;;
73428;SDS011;61643;49.564;17.412;2023-12-29T10:14:22;13.85;;;6.97;;
73428;SDS011;61643;49.564;17.412;2023-12-29T10:17:03;12.20;;;6.55;;
73428;SDS011;61643;49.564;17.412;2023-12-29T10:19:37;10.65;;;5.18;;
73428;SDS011;61643;49.564;17.412;2023-12-29T10:22:08;11.20;;;6.30;;
73428;SDS011;61643;49.564;17.412;2023-12-29T10:24:41;11.57;;;5.97;;
73428;SDS011;61643;49.564;17.412;2023-12-29T10:29:35;22.58;;;11.65;;
73428;SDS011;61643;49.564;17.412;2023-12-29T10:32:02;9.98;;;5.53;;
73428;SDS011;61643;49.564;17.412;2023-12-29T10:34:28;15.48;;;7.15;;
73428;SDS011;61643;49.564;17.412;2023-12-29T10:36:55;12.38;;;6.70;;
73428;SDS011;61643;49.564;17.412;2023-12-29T10:39:22;12.30;;;6.68;;
73428;SDS011;61643;49.564;17.412;2023-12-29T10:41:49;15.20;;;8.50;;
73428;SDS011;61643;49.564;17.412;2023-12-29T10:44:15;10.35;;;6.03;;
73428;SDS011;61643;49.564;17.412;2023-12-29T10:46:42;10.65;;;5.88;;
73428;SDS011;61643;49.564;17.412;2023-12-29T10:49:08;11.95;;;6.68;;
73428;SDS011;61643;49.564;17.412;2023-12-29T10:51:35;12.32;;;6.57;;
73428;SDS011;61643;49.564;17.412;2023-12-29T10:54:02;10.43;;;6.38;;
73428;SDS011;61643;49.564;17.412;2023-12-29T10:56:29;21.02;;;8.93;;
73428;SDS011;61643;49.564;17.412;2023-12-29T10:58:56;12.77;;;6.78;;
73428;SDS011;61643;49.564;17.412;2023-12-29T11:01:30;9.93;;;5.80;;
73428;SDS011;61643;49.564;17.412;2023-12-29T11:03:58;14.18;;;7.57;;
73428;SDS011;61643;49.564;17.412;2023-12-29T11:06:28;11.95;;;6.40;;
73428;SDS011;61643;49.564;17.412;2023-12-29T11:08:56;12.32;;;6.35;;
73428;SDS011;61643;49.564;17.412;2023-12-29T11:11:22;14.07;;;7.18;;
73428;SDS011;61643;49.564;17.412;2023-12-29T11:13:49;11.38;;;5.72;;
73428;SDS011;61643;49.564;17.412;2023-12-29T11:16:16;66.05;;;31.15;;
73428;SDS011;61643;49.564;17.412;2023-12-29T11:18:47;12.27;;;6.95;;
73428;SDS011;61643;49.564;17.412;2023-12-29T11:21:14;21.77;;;10.35;;
73428;SDS011;61643;49.564;17.412;2023-12-29T11:23:42;20.83;;;10.32;;
73428;SDS011;61643;49.564;17.412;2023-12-29T11:26:09;10.98;;;6.15;;
73428;SDS011;61643;49.564;17.412;2023-12-29T11:28:35;13.30;;;7.28;;
73428;SDS011;61643;49.564;17.412;2023-12-29T11:31:02;17.05;;;9.13;;
73428;SDS011;61643;49.564;17.412;2023-12-29T11:33:34;10.10;;;5.40;;
73428;SDS011;61643;49.564;17.412;2023-12-29T11:36:16;10.68;;;5.30;;
73428;SDS011;61643;49.564;17.412;2023-12-29T11:38:54;9.57;;;5.05;;
73428;SDS011;61643;49.564;17.412;2023-12-29T11:41:49;18.48;;;8.02;;
73428;SDS011;61643;49.564;17.412;2023-12-29T11:44:26;15.95;;;8.30;;
73428;SDS011;61643;49.564;17.412;2023-12-29T11:46:56;13.35;;;7.15;;
73428;SDS011;61643;49.564;17.412;2023-12-29T11:49:23;12.85;;;6.63;;
73428;SDS011;61643;49.564;17.412;2023-12-29T11:51:49;10.35;;;5.43;;
73428;SDS011;61643;49.564;17.412;2023-12-29T11:56:49;10.68;;;5.35;;
73428;SDS011;61643;49.564;17.412;2023-12-29T11:59:16;11.45;;;6.38;;
73428;SDS011;61643;49.564;17.412;2023-12-29T12:01:43;8.88;;;4.97;;
73428;SDS011;61643;49.564;17.412;2023-12-29T12:07:17;12.15;;;6.07;;
73428;SDS011;61643;49.564;17.412;2023-12-29T12:12:46;8.90;;;4.75;;
73428;SDS011;61643;49.564;17.412;2023-12-29T12:17:55;7.90;;;4.88;;
73428;SDS011;61643;49.564;17.412;2023-12-29T12:20:22;7.13;;;4.55;;
73428;SDS011;61643;49.564;17.412;2023-12-29T12:22:49;8.77;;;5.28;;
73428;SDS011;61643;49.564;17.412;2023-12-29T12:25:21;8.10;;;4.60;;
73428;SDS011;61643;49.564;17.412;2023-12-29T12:27:47;7.75;;;4.63;;
73428;SDS011;61643;49.564;17.412;2023-12-29T12:30:17;8.15;;;4.68;;
73428;SDS011;61643;49.564;17.412;2023-12-29T12:32:44;8.23;;;4.70;;
73428;SDS011;61643;49.564;17.412;2023-12-29T12:35:14;7.93;;;4.72;;
73428;SDS011;61643;49.564;17.412;2023-12-29T12:37:41;6.82;;;4.05;;
73428;SDS011;61643;49.564;17.412;2023-12-29T12:40:08;7.75;;;4.13;;
73428;SDS011;61643;49.564;17.412;2023-12-29T12:42:38;7.45;;;4.20;;
73428;SDS011;61643;49.564;17.412;2023-12-29T12:45:16;7.25;;;4.30;;
73428;SDS011;61643;49.564;17.412;2023-12-29T12:47:45;8.05;;;4.55;;
73428;SDS011;61643;49.564;17.412;2023-12-29T12:50:16;8.38;;;4.47;;
73428;SDS011;61643;49.564;17.412;2023-12-29T12:52:43;8.55;;;4.80;;
73428;SDS011;61643;49.564;17.412;2023-12-29T12:55:09;7.82;;;4.50;;
73428;SDS011;61643;49.564;17.412;2023-12-29T12:57:36;8.35;;;4.53;;
73428;SDS011;61643;49.564;17.412;2023-12-29T13:00:03;7.38;;;4.30;;
73428;SDS011;61643;49.564;17.412;2023-12-29T13:02:31;7.75;;;4.65;;
73428;SDS011;61643;49.564;17.412;2023-12-29T13:04:58;7.57;;;4.57;;
73428;SDS011;61643;49.564;17.412;2023-12-29T13:07:24;8.45;;;4.38;;
73428;SDS011;61643;49.564;17.412;2023-12-29T13:09:51;7.22;;;4.50;;
73428;SDS011;61643;49.564;17.412;2023-12-29T13:12:18;8.38;;;4.10;;
73428;SDS011;61643;49.564;17.412;2023-12-29T13:14:44;8.13;;;4.63;;
73428;SDS011;61643;49.564;17.412;2023-12-29T13:17:12;6.47;;;4.43;;
73428;SDS011;61643;49.564;17.412;2023-12-29T13:19:40;6.55;;;3.80;;
73428;SDS011;61643;49.564;17.412;2023-12-29T13:22:15;5.97;;;3.70;;
73428;SDS011;61643;49.564;17.412;2023-12-29T13:24:45;6.63;;;4.25;;
73428;SDS011;61643;49.564;17.412;2023-12-29T13:27:11;9.10;;;4.72;;
73428;SDS011;61643;49.564;17.412;2023-12-29T13:29:38;7.25;;;4.78;;
73428;SDS011;61643;49.564;17.412;2023-12-29T13:35:11;8.38;;;4.50;;
73428;SDS011;61643;49.564;17.412;2023-12-29T13:37:52;6.63;;;4.13;;
73428;SDS011;61643;49.564;17.412;2023-12-29T13:40:28;6.93;;;4.03;;
73428;SDS011;61643;49.564;17.412;2023-12-29T13:43:03;6.97;;;4.22;;
73428;SDS011;61643;49.564;17.412;2023-12-29T13:45:34;6.97;;;3.97;;
73428;SDS011;61643;49.564;17.412;2023-12-29T13:48:01;6.25;;;4.30;;
73428;SDS011;61643;49.564;17.412;2023-12-29T13:50:29;7.57;;;4.13;;
73428;SDS011;61643;49.564;17.412;2023-12-29T13:52:55;9.35;;;4.78;;
73428;SDS011;61643;49.564;17.412;2023-12-29T13:55:21;8.80;;;4.57;;
73428;SDS011;61643;49.564;17.412;2023-12-29T13:57:50;8.00;;;4.55;;
73428;SDS011;61643;49.564;17.412;2023-12-29T14:00:18;9.15;;;4.43;;
73428;SDS011;61643;49.564;17.412;2023-12-29T14:02:57;8.98;;;5.03;;
73428;SDS011;61643;49.564;17.412;2023-12-29T14:06:19;7.75;;;4.43;;
73428;SDS011;61643;49.564;17.412;2023-12-29T14:08:17;9.15;;;4.40;;
73428;SDS011;61643;49.564;17.412;2023-12-29T14:10:48;9.82;;;4.35;;
73428;SDS011;61643;49.564;17.412;2023-12-29T14:13:15;8.20;;;4.57;;
73428;SDS011;61643;49.564;17.412;2023-12-29T14:15:42;7.57;;;4.38;;
73428;SDS011;61643;49.564;17.412;2023-12-29T14:20:38;13.15;;;6.20;;
73428;SDS011;61643;49.564;17.412;2023-12-29T14:23:05;9.40;;;5.20;;
73428;SDS011;61643;49.564;17.412;2023-12-29T14:25:35;6.90;;;4.22;;
73428;SDS011;61643;49.564;17.412;2023-12-29T14:28:24;8.82;;;4.85;;
73428;SDS011;61643;49.564;17.412;2023-12-29T14:30:48;8.48;;;4.70;;
73428;SDS011;61643;49.564;17.412;2023-12-29T14:33:16;8.73;;;4.70;;
73428;SDS011;61643;49.564;17.412;2023-12-29T14:35:42;12.18;;;5.43;;
73428;SDS011;61643;49.564;17.412;2023-12-29T14:38:08;9.73;;;4.78;;
73428;SDS011;61643;49.564;17.412;2023-12-29T14:40:34;9.15;;;4.97;;
73428;SDS011;61643;49.564;17.412;2023-12-29T14:43:04;118.95;;;13.52;;
73428;SDS011;61643;49.564;17.412;2023-12-29T14:45:30;12.52;;;5.30;;
73428;SDS011;61643;49.564;17.412;2023-12-29T14:47:58;9.73;;;5.03;;